Time;durP1;ratioP1;P1;durP2;ratioP2;P2;SDS_P1;SDS_P2;PMS_P1;PMS_P2;Temp;Humidity;BMP_temperature;BMP_pressure;BME280_temperature;BME280_humidity;BME280_pressure;Samples;Min_cycle;Max_cycle;Signal;HPM_P1;HPM_P2
2022/10/11 00:00:44;;;;;;;11.93;4.87;;;7.10;1.00;;;;;;5059173;28;20472;-59
2022/10/11 00:03:14;;;;;;;9.90;4.40;;;7.10;1.00;;;;;;5058562;28;20561;-60
2022/10/11 00:05:43;;;;;;;9.20;3.90;;;7.00;1.00;;;;;;5059034;28;20434;-60
2022/10/11 00:08:12;;;;;;;10.97;4.70;;;7.00;1.00;;;;;;5058120;28;20440;-60
2022/10/11 00:10:41;;;;;;;7.67;4.00;;;6.90;99.90;;;;;;5058291;28;20509;-58
2022/10/11 00:13:09;;;;;;;10.17;4.70;;;6.90;97.30;;;;;;5058015;28;20486;-60
2022/10/11 00:15:36;;;;;;;9.40;4.17;;;6.80;1.00;;;;;;5058190;28;20561;-61
2022/10/11 00:18:06;;;;;;;12.27;4.33;;;6.80;99.90;;;;;;5058203;28;20490;-60
2022/10/11 00:20:33;;;;;;;6.50;4.03;;;6.80;99.90;;;;;;5058508;28;20463;-59
2022/10/11 00:23:02;;;;;;;11.10;3.33;;;6.80;99.90;;;;;;5058373;28;20473;-60
2022/10/11 00:25:31;;;;;;;11.90;3.80;;;6.80;1.00;;;;;;5057982;28;20438;-59
2022/10/11 00:27:59;;;;;;;12.87;3.93;;;6.80;1.00;;;;;;5058342;28;20458;-59
2022/10/11 00:30:26;;;;;;;12.30;3.67;;;6.80;1.00;;;;;;5058235;28;20909;-59
2022/10/11 00:32:54;;;;;;;9.13;4.40;;;6.60;99.90;;;;;;5058262;28;20466;-60
2022/10/11 00:35:21;;;;;;;14.60;3.90;;;6.60;1.00;;;;;;5058242;28;20469;-61
2022/10/11 00:37:51;;;;;;;10.03;3.67;;;6.60;99.90;;;;;;5057832;28;20494;-59
2022/10/11 00:40:21;;;;;;;10.00;4.30;;;6.50;99.90;;;;;;5057190;28;20807;-61
2022/10/11 00:42:48;;;;;;;10.63;5.03;;;6.50;99.90;;;;;;5057983;28;20533;-61
2022/10/11 00:45:54;;;;;;;12.27;4.00;;;6.50;1.00;;;;;;5057489;28;20461;-60
2022/10/11 00:48:30;;;;;;;9.33;3.33;;;6.60;1.00;;;;;;5057972;28;20907;-59
2022/10/11 00:51:00;;;;;;;11.90;4.50;;;6.50;99.90;;;;;;5057939;28;20472;-57
2022/10/11 00:53:30;;;;;;;8.43;4.10;;;6.50;1.00;;;;;;5057252;28;20469;-57
2022/10/11 00:56:04;;;;;;;7.20;3.70;;;6.40;99.90;;;;;;5057516;28;20466;-61
2022/10/11 00:58:36;;;;;;;6.23;3.60;;;6.40;1.00;;;;;;5058037;28;20487;-58
2022/10/11 01:01:05;;;;;;;10.63;4.03;;;6.40;99.90;;;;;;5058109;28;20458;-61
2022/10/11 01:03:35;;;;;;;7.63;4.03;;;6.30;1.00;;;;;;5057541;28;20485;-61
2022/10/11 01:06:03;;;;;;;10.07;3.77;;;6.20;99.90;;;;;;5057729;28;20462;-60
2022/10/11 01:08:32;;;;;;;10.60;4.10;;;6.20;99.90;;;;;;5056817;28;20740;-56
2022/10/11 01:11:00;;;;;;;10.07;3.57;;;6.20;99.90;;;;;;5055925;28;20440;-61
2022/10/11 01:13:41;;;;;;;12.53;4.60;;;6.20;1.00;;;;;;5056742;28;21008;-58
2022/10/11 01:16:16;;;;;;;8.83;4.87;;;6.20;1.00;;;;;;5057540;28;20462;-59
2022/10/11 01:18:54;;;;;;;10.03;4.90;;;6.10;99.90;;;;;;5057601;28;20496;-59
2022/10/11 01:21:33;;;;;;;10.70;4.07;;;6.10;1.00;;;;;;5056981;28;20561;-61
2022/10/11 01:24:27;;;;;;;8.70;4.47;;;6.10;99.90;;;;;;5057355;28;20910;-61
2022/10/11 01:27:32;;;;;;;7.20;3.50;;;6.00;29.60;;;;;;5057318;28;20437;-59
2022/10/11 01:30:16;;;;;;;11.60;4.60;;;5.90;99.90;;;;;;5057381;28;20515;-58
2022/10/11 01:32:53;;;;;;;9.73;5.43;;;5.90;71.50;;;;;;5057321;28;20482;-61
2022/10/11 01:35:28;;;;;;;8.47;4.17;;;6.00;99.90;;;;;;5056995;28;20743;-57
2022/10/11 01:38:01;;;;;;;12.33;5.80;;;6.00;1.00;;;;;;5056567;28;20492;-59
2022/10/11 01:40:38;;;;;;;15.63;5.83;;;6.10;1.00;;;;;;5057136;28;20436;-61
2022/10/11 01:43:14;;;;;;;7.43;4.30;;;6.10;1.00;;;;;;5057176;28;20461;-58
2022/10/11 01:45:44;;;;;;;10.93;4.30;;;6.20;1.00;;;;;;5056844;28;20462;-60
2022/10/11 01:48:15;;;;;;;9.00;4.20;;;6.20;1.00;;;;;;5056895;28;20469;-59
2022/10/11 01:50:48;;;;;;;8.50;4.90;;;6.30;1.00;;;;;;5057138;28;20902;-59
2022/10/11 01:53:47;;;;;;;9.60;5.30;;;6.40;1.00;;;;;;5056868;28;20495;-61
2022/10/11 01:56:34;;;;;;;7.17;4.60;;;6.40;23.80;;;;;;5057031;28;20527;-61
2022/10/11 01:59:15;;;;;;;8.67;4.87;;;6.50;99.90;;;;;;5057003;28;20496;-60
2022/10/11 02:01:55;;;;;;;7.50;4.20;;;6.60;99.90;;;;;;5056603;28;20512;-59
2022/10/11 02:04:30;;;;;;;6.77;4.10;;;6.60;99.60;;;;;;5056788;28;20465;-61
2022/10/11 02:07:07;;;;;;;7.03;4.53;;;6.60;68.30;;;;;;5057025;28;20485;-61
2022/10/11 02:09:44;;;;;;;8.40;4.90;;;6.70;99.90;;;;;;5056851;28;20462;-61
2022/10/11 02:12:15;;;;;;;11.53;4.83;;;6.80;99.90;;;;;;5056965;28;20432;-61
2022/10/11 02:14:47;;;;;;;21.07;5.43;;;6.80;94.60;;;;;;5056286;28;20493;-60
2022/10/11 02:17:20;;;;;;;12.27;5.80;;;6.80;99.90;;;;;;5056492;28;20520;-61
2022/10/11 02:19:53;;;;;;;13.60;5.60;;;6.80;99.90;;;;;;5056853;28;20804;-60
2022/10/11 02:22:29;;;;;;;14.67;5.80;;;6.80;99.90;;;;;;5061050;28;20541;-61
2022/10/11 02:25:02;;;;;;;20.10;6.67;;;6.80;99.90;;;;;;5060690;28;20469;-60
2022/10/11 02:27:32;;;;;;;11.43;5.50;;;6.80;99.90;;;;;;5060668;28;20509;-60
2022/10/11 02:30:06;;;;;;;10.97;6.83;;;6.70;99.90;;;;;;5060359;28;20474;-61
2022/10/11 02:32:40;;;;;;;14.00;6.93;;;6.80;99.90;;;;;;5060548;28;20840;-60
2022/10/11 02:35:11;;;;;;;14.47;6.70;;;6.80;99.90;;;;;;5060198;28;20899;-62
2022/10/11 02:37:43;;;;;;;20.87;8.07;;;6.80;99.90;;;;;;5060334;28;20497;-61
2022/10/11 02:40:16;;;;;;;14.00;6.37;;;6.80;99.90;;;;;;5059551;28;20472;-61
2022/10/11 02:42:57;;;;;;;12.27;6.30;;;6.80;99.90;;;;;;5060361;28;20462;-60
2022/10/11 02:45:29;;;;;;;12.10;6.77;;;6.80;99.90;;;;;;5059850;28;20520;-61
2022/10/11 02:47:59;;;;;;;10.67;7.00;;;6.80;99.90;;;;;;5060139;28;20876;-62
2022/10/11 02:50:27;;;;;;;18.53;7.13;;;6.70;99.90;;;;;;5060116;28;20469;-61
2022/10/11 02:52:58;;;;;;;12.30;7.40;;;6.70;99.90;;;;;;5060183;28;20462;-62
2022/10/11 02:55:28;;;;;;;15.63;7.33;;;6.60;99.90;;;;;;5059655;28;20461;-60
2022/10/11 02:57:55;;;;;;;10.67;7.00;;;6.60;99.90;;;;;;5059747;28;20486;-62
2022/10/11 03:00:23;;;;;;;15.50;6.30;;;6.70;99.90;;;;;;5059908;28;20504;-62
2022/10/11 03:02:52;;;;;;;21.20;7.70;;;6.60;99.90;;;;;;5059073;28;20786;-62
2022/10/11 03:05:21;;;;;;;13.47;6.30;;;6.70;99.90;;;;;;5059900;28;20776;-62
2022/10/11 03:07:49;;;;;;;13.00;6.40;;;6.70;99.90;;;;;;5059573;28;20454;-62
2022/10/11 03:10:16;;;;;;;9.60;6.50;;;6.70;99.90;;;;;;5059615;28;20505;-61
2022/10/11 03:12:47;;;;;;;21.33;6.70;;;6.70;99.90;;;;;;5059900;28;20466;-62
2022/10/11 03:15:14;;;;;;;14.20;8.33;;;6.70;99.90;;;;;;5059279;28;20467;-62
2022/10/11 03:17:43;;;;;;;14.20;6.57;;;6.70;99.90;;;;;;5059668;28;20561;-62
2022/10/11 03:20:10;;;;;;;10.97;7.00;;;6.60;99.90;;;;;;5059550;28;20762;-62
2022/10/11 03:22:39;;;;;;;11.13;6.47;;;6.70;99.90;;;;;;5059696;28;20472;-62
2022/10/11 03:25:07;;;;;;;12.60;6.50;;;6.60;99.90;;;;;;5058960;28;20472;-62
2022/10/11 03:27:34;;;;;;;11.47;6.50;;;6.60;99.90;;;;;;5059122;28;20593;-62
2022/10/11 03:30:02;;;;;;;21.97;6.90;;;6.60;99.90;;;;;;5059242;28;20480;-62
2022/10/11 03:32:31;;;;;;;9.00;5.97;;;6.60;99.90;;;;;;5058409;28;20462;-61
2022/10/11 03:34:59;;;;;;;9.70;6.30;;;6.50;99.90;;;;;;5059382;28;20468;-62
2022/10/11 03:37:26;;;;;;;28.00;9.17;;;6.50;99.90;;;;;;5059205;28;20468;-63
2022/10/11 03:39:55;;;;;;;13.67;8.13;;;6.50;99.90;;;;;;5058074;28;20494;-62
2022/10/11 03:42:22;;;;;;;15.67;6.97;;;6.50;99.90;;;;;;5059250;28;20458;-63
2022/10/11 03:44:50;;;;;;;20.50;7.53;;;6.50;99.90;;;;;;5059273;28;20441;-63
2022/10/11 03:47:18;;;;;;;12.63;6.60;;;6.50;99.90;;;;;;5058708;28;20505;-62
2022/10/11 03:49:45;;;;;;;12.07;7.60;;;6.40;99.90;;;;;;5058644;28;20494;-63
2022/10/11 03:52:12;;;;;;;39.47;9.57;;;6.40;99.90;;;;;;5058977;28;20488;-61
2022/10/11 03:54:39;;;;;;;17.97;7.10;;;6.40;99.90;;;;;;5058954;28;20556;-63
2022/10/11 03:57:08;;;;;;;13.83;7.20;;;6.40;99.90;;;;;;5058577;28;20468;-63
2022/10/11 03:59:36;;;;;;;45.47;8.83;;;6.40;99.90;;;;;;5058808;28;20517;-63
2022/10/11 04:02:03;;;;;;;14.93;7.13;;;6.30;99.90;;;;;;5058757;28;20854;-63
2022/10/11 04:04:30;;;;;;;9.10;5.80;;;6.20;99.90;;;;;;5058347;28;20463;-63
2022/10/11 04:06:57;;;;;;;15.53;6.50;;;6.20;99.90;;;;;;5059075;28;20465;-63
2022/10/11 04:09:29;;;;;;;64.53;10.30;;;6.20;99.90;;;;;;5058384;28;20799;-63
2022/10/11 04:11:56;;;;;;;7.77;6.40;;;6.30;99.90;;;;;;5058480;28;20466;-63
2022/10/11 04:14:25;;;;;;;34.67;8.27;;;6.20;99.90;;;;;;5058041;28;20539;-63
2022/10/11 04:16:52;;;;;;;22.87;7.60;;;6.20;99.90;;;;;;5058539;28;20472;-63
2022/10/11 04:19:19;;;;;;;17.43;6.40;;;6.10;99.90;;;;;;5057979;28;20500;-63
2022/10/11 04:21:46;;;;;;;10.40;6.00;;;6.10;99.90;;;;;;5058450;28;20942;-63
2022/10/11 04:24:16;;;;;;;20.47;7.40;;;6.20;99.90;;;;;;5058275;28;20564;-63
2022/10/11 04:26:45;;;;;;;15.90;7.20;;;6.10;99.90;;;;;;5058429;28;20758;-63
2022/10/11 04:29:12;;;;;;;20.00;6.43;;;6.10;99.90;;;;;;5058319;28;20462;-63
2022/10/11 04:31:45;;;;;;;41.70;8.10;;;5.90;99.90;;;;;;5057895;28;20476;-63
2022/10/11 04:34:13;;;;;;;7.70;5.13;;;5.70;99.90;;;;;;5057824;28;20931;-63
2022/10/11 04:36:45;;;;;;;33.10;7.83;;;5.70;99.90;;;;;;5058174;28;20474;-63
2022/10/11 04:39:15;;;;;;;10.90;6.47;;;5.80;99.90;;;;;;5057324;28;20500;-63
2022/10/11 04:41:42;;;;;;;25.87;7.70;;;5.80;99.90;;;;;;5057447;28;20461;-63
2022/10/11 04:44:09;;;;;;;12.13;6.77;;;5.90;99.90;;;;;;5057683;28;20467;-63
2022/10/11 04:46:36;;;;;;;10.90;6.43;;;6.00;99.90;;;;;;5057993;28;20648;-63
2022/10/11 04:49:06;;;;;;;46.20;8.80;;;6.00;99.90;;;;;;5057932;28;20459;-63
2022/10/11 04:51:36;;;;;;;11.60;6.13;;;5.90;99.90;;;;;;5057698;28;20747;-63
2022/10/11 04:54:04;;;;;;;13.83;5.80;;;5.90;99.90;;;;;;5057426;28;20477;-63
2022/10/11 04:56:31;;;;;;;16.70;7.40;;;5.80;99.90;;;;;;5057574;28;20828;-63
2022/10/11 04:58:58;;;;;;;119.03;14.60;;;5.90;99.90;;;;;;5056234;28;20857;-63
2022/10/11 05:01:25;;;;;;;51.03;9.77;;;5.90;99.90;;;;;;5056129;28;20466;-63
2022/10/11 05:03:55;;;;;;;40.90;9.37;;;5.80;99.90;;;;;;5056614;28;20462;-63
2022/10/11 05:06:24;;;;;;;13.87;6.90;;;5.80;99.90;;;;;;5056701;28;20573;-64
2022/10/11 05:08:51;;;;;;;12.30;7.00;;;5.80;99.90;;;;;;5056815;28;20548;-64
2022/10/11 05:11:19;;;;;;;10.67;7.00;;;5.80;99.90;;;;;;5056727;28;20465;-64
2022/10/11 05:13:46;;;;;;;26.57;8.13;;;5.80;99.90;;;;;;5056765;28;20482;-64
2022/10/11 05:16:17;;;;;;;30.37;7.97;;;5.90;99.90;;;;;;5057689;28;20459;-64
2022/10/11 05:18:45;;;;;;;36.37;10.17;;;5.80;99.90;;;;;;5057316;28;20460;-64
2022/10/11 05:21:16;;;;;;;24.17;7.60;;;5.70;99.90;;;;;;5057434;28;20462;-64
2022/10/11 05:23:46;;;;;;;12.03;7.00;;;5.70;99.90;;;;;;5057174;28;20466;-64
2022/10/11 05:26:13;;;;;;;28.90;8.67;;;5.70;99.90;;;;;;5057502;28;20472;-64
2022/10/11 05:28:41;;;;;;;32.73;8.07;;;5.70;99.90;;;;;;5051526;28;20546;-64
2022/10/11 05:31:08;;;;;;;35.03;8.30;;;5.70;99.90;;;;;;5035961;28;20475;-64
2022/10/11 05:33:36;;;;;;;35.60;9.07;;;5.70;99.90;;;;;;5037189;28;20871;-64
2022/10/11 05:36:06;;;;;;;20.30;8.83;;;5.70;99.90;;;;;;5036867;28;20768;-64
2022/10/11 05:38:34;;;;;;;52.90;11.03;;;5.70;99.90;;;;;;5037062;28;20467;-64
2022/10/11 05:41:03;;;;;;;13.23;7.73;;;5.70;99.90;;;;;;5037267;28;20466;-58
2022/10/11 05:43:31;;;;;;;28.33;8.67;;;5.70;99.90;;;;;;5037063;28;20466;-63
2022/10/11 05:45:58;;;;;;;27.37;8.83;;;5.70;99.90;;;;;;5037143;28;20474;-63
2022/10/11 05:48:27;;;;;;;16.03;8.20;;;5.70;99.90;;;;;;5036842;28;20470;-60
2022/10/11 05:50:59;;;;;;;13.40;7.40;;;5.70;99.90;;;;;;5036993;28;20904;-62
2022/10/11 05:53:26;;;;;;;41.07;9.60;;;5.70;99.90;;;;;;5036890;28;20517;-62
2022/10/11 05:55:55;;;;;;;51.07;12.10;;;5.70;99.90;;;;;;5038774;28;20467;-62
2022/10/11 05:58:25;;;;;;;10.10;6.33;;;5.70;99.90;;;;;;5040858;28;20509;-60
2022/10/11 06:00:52;;;;;;;65.13;10.73;;;5.70;99.90;;;;;;5058183;28;20816;-62
2022/10/11 06:03:19;;;;;;;16.57;8.00;;;5.70;99.90;;;;;;5059798;28;20519;-61
2022/10/11 06:05:47;;;;;;;39.23;10.90;;;5.70;99.90;;;;;;5046435;28;20463;-62
2022/10/11 06:08:15;;;;;;;71.50;12.53;;;5.80;99.90;;;;;;5040931;28;20553;-62
2022/10/11 06:10:44;;;;;;;32.33;9.07;;;5.70;99.90;;;;;;5040930;28;20466;-63
2022/10/11 06:13:15;;;;;;;31.90;10.50;;;5.80;99.90;;;;;;5039494;28;20498;-63
2022/10/11 06:15:52;;;;;;;95.63;15.10;;;5.70;99.90;;;;;;5040561;28;20459;-62
2022/10/11 06:18:19;;;;;;;38.30;10.90;;;5.70;99.90;;;;;;5040979;28;20866;-63
2022/10/11 06:20:49;;;;;;;12.33;9.67;;;5.70;99.90;;;;;;5039886;28;20491;-62
2022/10/11 06:23:16;;;;;;;14.17;8.83;;;5.70;99.90;;;;;;5039855;28;20521;-62
2022/10/11 06:25:43;;;;;;;36.23;9.47;;;5.70;99.90;;;;;;5039403;28;20765;-63
2022/10/11 06:28:13;;;;;;;13.87;8.73;;;5.70;99.90;;;;;;5040208;28;20612;-63
2022/10/11 06:30:40;;;;;;;12.97;9.10;;;5.80;99.90;;;;;;5040180;28;20458;-63
2022/10/11 06:33:09;;;;;;;25.83;10.13;;;5.80;99.90;;;;;;5039458;28;20441;-63
2022/10/11 06:35:38;;;;;;;24.33;11.40;;;5.80;99.90;;;;;;5038942;28;20462;-63
2022/10/11 06:38:07;;;;;;;11.80;8.33;;;5.80;99.90;;;;;;5039395;28;20471;-63
2022/10/11 06:40:36;;;;;;;30.23;12.10;;;5.80;99.90;;;;;;5040428;28;20768;-63
2022/10/11 06:43:04;;;;;;;18.20;9.00;;;5.90;99.90;;;;;;5040437;28;20785;-63
2022/10/11 06:45:31;;;;;;;35.40;9.10;;;5.70;99.90;;;;;;5040419;28;20444;-63
2022/10/11 06:48:00;;;;;;;28.33;10.50;;;5.50;99.90;;;;;;5040614;28;20468;-61
2022/10/11 06:50:29;;;;;;;41.40;11.13;;;5.60;99.90;;;;;;5040435;28;20459;-61
2022/10/11 06:52:59;;;;;;;11.90;8.20;;;5.60;99.90;;;;;;5039858;28;20467;-63
2022/10/11 06:55:26;;;;;;;20.37;9.63;;;5.70;99.90;;;;;;5039779;28;20463;-61
2022/10/11 06:57:55;;;;;;;23.60;7.93;;;5.80;99.90;;;;;;5039693;28;20449;-63
2022/10/11 07:00:24;;;;;;;9.50;6.90;;;5.90;99.90;;;;;;5039933;28;20589;-63
2022/10/11 07:02:51;;;;;;;13.80;7.20;;;6.10;99.90;;;;;;5040032;28;20481;-63
2022/10/11 07:05:19;;;;;;;30.00;8.50;;;6.10;99.90;;;;;;5040058;28;20771;-63
2022/10/11 07:07:47;;;;;;;56.63;10.40;;;6.30;99.90;;;;;;5039432;28;20564;-62
2022/10/11 07:10:15;;;;;;;38.93;10.47;;;6.30;99.90;;;;;;5039097;28;20480;-63
2022/10/11 07:12:44;;;;;;;37.00;10.40;;;6.30;99.90;;;;;;5039787;28;20525;-63
2022/10/11 07:15:12;;;;;;;9.37;7.57;;;6.20;99.90;;;;;;5000246;28;20460;-63
2022/10/11 07:17:39;;;;;;;48.10;11.03;;;6.20;99.90;;;;;;5000185;28;20959;-63
2022/10/11 07:20:08;;;;;;;12.73;9.50;;;6.50;99.90;;;;;;5000495;28;20471;-63
2022/10/11 07:22:36;;;;;;;13.87;8.73;;;6.60;99.90;;;;;;5000393;28;20504;-63
2022/10/11 07:25:05;;;;;;;14.03;11.23;;;6.70;99.90;;;;;;5000639;28;20465;-63
2022/10/11 07:27:32;;;;;;;13.20;10.50;;;6.90;99.90;;;;;;5000035;28;20473;-63
2022/10/11 07:30:00;;;;;;;14.63;11.10;;;7.00;30.00;;;;;;4998944;28;20473;-63
2022/10/11 07:32:27;;;;;;;14.23;9.60;;;7.10;9.10;;;;;;4999949;28;20461;-63
2022/10/11 07:34:54;;;;;;;18.83;11.23;;;7.20;99.90;;;;;;4999711;28;20471;-63
2022/10/11 07:37:22;;;;;;;13.87;9.57;;;7.50;99.90;;;;;;4999541;28;20774;-63
2022/10/11 07:39:49;;;;;;;17.60;9.57;;;7.80;1.00;;;;;;4998973;28;20501;-63
2022/10/11 07:42:18;;;;;;;15.80;9.60;;;8.00;99.90;;;;;;4998959;28;20465;-63
2022/10/11 07:44:46;;;;;;;11.93;9.30;;;8.10;1.00;;;;;;5000108;28;20917;-63
2022/10/11 07:47:13;;;;;;;11.67;8.60;;;8.30;99.90;;;;;;4999298;28;20469;-63
2022/10/11 07:49:40;;;;;;;13.70;9.90;;;8.40;99.90;;;;;;4999671;28;20461;-63
2022/10/11 07:52:08;;;;;;;12.23;9.60;;;8.50;1.00;;;;;;4999758;28;20465;-63
2022/10/11 07:54:35;;;;;;;15.30;10.23;;;8.80;1.00;;;;;;4999717;28;20477;-63
2022/10/11 07:57:02;;;;;;;12.63;9.93;;;9.20;1.00;;;;;;4999772;28;20753;-63
2022/10/11 07:59:31;;;;;;;12.30;8.77;;;9.20;99.90;;;;;;5018118;28;20945;-63
2022/10/11 08:02:00;;;;;;;11.77;9.30;;;9.50;99.90;;;;;;5018956;28;20555;-63
2022/10/11 08:04:27;;;;;;;13.70;9.53;;;9.70;29.30;;;;;;5018832;28;20451;-63
2022/10/11 08:06:54;;;;;;;11.77;9.83;;;9.90;1.00;;;;;;5019401;28;20468;-63
2022/10/11 08:09:21;;;;;;;13.87;9.80;;;9.80;1.00;;;;;;5018977;28;20467;-63
2022/10/11 08:11:49;;;;;;;14.03;10.03;;;9.90;1.00;;;;;;5018756;28;20440;-63
2022/10/11 08:14:17;;;;;;;16.40;11.30;;;9.80;1.00;;;;;;5044060;28;20797;-63
2022/10/11 08:16:49;;;;;;;14.43;10.23;;;10.10;1.00;;;;;;5059005;28;20462;-63
2022/10/11 08:19:17;;;;;;;17.70;10.33;;;10.30;1.00;;;;;;5057822;28;20462;-63
2022/10/11 08:21:44;;;;;;;15.10;10.10;;;10.60;1.00;;;;;;5058251;28;20463;-63
2022/10/11 08:24:15;;;;;;;14.93;10.20;;;10.90;1.00;;;;;;5058405;28;20469;-63
2022/10/11 08:26:43;;;;;;;13.37;10.40;;;11.20;1.00;;;;;;5058543;28;20437;-63
2022/10/11 08:29:13;;;;;;;13.43;9.80;;;11.30;1.00;;;;;;5057918;28;20462;-63
2022/10/11 08:31:40;;;;;;;15.03;10.90;;;11.50;1.00;;;;;;5057462;28;20466;-63
2022/10/11 08:34:11;;;;;;;16.07;10.83;;;11.70;1.00;;;;;;5058098;28;20466;-63
2022/10/11 08:36:40;;;;;;;13.57;10.80;;;11.90;1.00;;;;;;5058116;28;20459;-63
2022/10/11 08:39:11;;;;;;;16.83;12.03;;;11.90;1.00;;;;;;5057775;28;20490;-63
2022/10/11 08:41:46;;;;;;;15.53;11.20;;;12.00;1.00;;;;;;5057884;28;20454;-61
2022/10/11 08:44:37;;;;;;;16.07;11.20;;;12.40;1.00;;;;;;5058358;28;20515;-63
2022/10/11 08:47:10;;;;;;;15.47;10.57;;;12.50;1.00;;;;;;5036979;28;20558;-63
2022/10/11 08:49:44;;;;;;;17.00;11.30;;;12.40;99.90;;;;;;5037832;28;20533;-63
2022/10/11 08:52:21;;;;;;;13.43;10.80;;;12.70;99.90;;;;;;5050078;28;20466;-63
2022/10/11 08:54:53;;;;;;;13.37;10.53;;;13.10;99.90;;;;;;5057434;28;20468;-63
2022/10/11 08:57:27;;;;;;;18.13;8.90;;;13.40;99.90;;;;;;5056591;28;20494;-61
2022/10/11 08:59:57;;;;;;;12.77;8.47;;;13.60;99.90;;;;;;5056758;28;20490;-63
2022/10/11 09:02:39;;;;;;;13.90;9.20;;;14.00;99.90;;;;;;5057906;28;20450;-63
2022/10/11 09:05:14;;;;;;;14.23;7.77;;;14.40;99.90;;;;;;5057236;28;20497;-62
2022/10/11 09:07:50;;;;;;;14.67;7.03;;;14.60;99.90;;;;;;5057377;28;20472;-61
2022/10/11 09:10:42;;;;;;;15.90;7.10;;;14.90;99.90;;;;;;5057478;28;20469;-60
2022/10/11 09:13:29;;;;;;;13.40;6.73;;;15.30;99.90;;;;;;5057327;28;20492;-61
2022/10/11 09:16:04;;;;;;;10.40;5.33;;;15.60;99.90;;;;;;5057499;28;20472;-62
2022/10/11 09:18:53;;;;;;;16.90;7.10;;;15.70;99.90;;;;;;5057312;28;20940;-63
2022/10/11 09:21:32;;;;;;;10.67;6.23;;;16.20;99.90;;;;;;5055416;28;20973;-63
2022/10/11 09:24:38;;;;;;;10.93;6.03;;;16.20;99.90;;;;;;5056665;28;20472;-63
2022/10/11 09:27:15;;;;;;;10.37;5.97;;;16.60;99.90;;;;;;5055155;28;20458;-63
2022/10/11 09:29:57;;;;;;;10.63;4.73;;;16.50;99.90;;;;;;5055668;28;20457;-63
2022/10/11 09:32:30;;;;;;;8.63;4.30;;;16.80;99.90;;;;;;5054244;28;20457;-63
2022/10/11 09:35:01;;;;;;;12.30;5.43;;;16.90;99.90;;;;;;5056367;28;20454;-63
2022/10/11 09:37:38;;;;;;;7.97;4.20;;;17.10;99.90;;;;;;5056911;28;20458;-63
2022/10/11 09:40:20;;;;;;;9.90;4.63;;;17.40;99.90;;;;;;5056189;28;20494;-64
2022/10/11 09:42:47;;;;;;;11.67;4.77;;;17.60;99.90;;;;;;5057155;28;20468;-64
2022/10/11 09:45:19;;;;;;;11.60;4.33;;;17.90;99.90;;;;;;5055878;28;20937;-64
2022/10/11 09:47:49;;;;;;;11.90;5.00;;;18.20;99.90;;;;;;5056875;28;20458;-64
2022/10/11 09:50:24;;;;;;;10.50;3.90;;;18.40;99.90;;;;;;5057257;28;20913;-64
2022/10/11 09:52:56;;;;;;;11.57;4.77;;;18.20;99.90;;;;;;5057222;28;20461;-64
2022/10/11 09:55:49;;;;;;;13.13;4.53;;;18.30;99.90;;;;;;5056628;28;20479;-64
2022/10/11 09:58:31;;;;;;;7.57;3.93;;;18.40;99.90;;;;;;4984548;28;20851;-64
2022/10/11 10:01:00;;;;;;;5.90;2.47;;;17.50;99.90;;;;;;5056975;28;20492;-64
2022/10/11 10:03:30;;;;;;;5.53;2.87;;;17.20;99.90;;;;;;5056858;28;20730;-64
2022/10/11 10:06:09;;;;;;;7.10;3.10;;;16.70;99.90;;;;;;5056751;28;20561;-64
2022/10/11 10:08:38;;;;;;;3.90;3.07;;;15.60;99.90;;;;;;5057047;28;20461;-64
2022/10/11 10:11:08;;;;;;;8.57;3.13;;;14.50;99.90;;;;;;5056561;28;20553;-64
2022/10/11 10:13:48;;;;;;;8.73;3.07;;;14.20;99.90;;;;;;5056698;28;20493;-64
2022/10/11 10:16:23;;;;;;;9.60;3.60;;;14.00;99.90;;;;;;5056808;28;20472;-63
2022/10/11 10:18:52;;;;;;;5.70;3.40;;;13.80;99.90;;;;;;5056812;28;20561;-63
2022/10/11 10:21:27;;;;;;;11.50;3.30;;;13.80;99.90;;;;;;5056339;28;20555;-63
2022/10/11 10:23:58;;;;;;;6.33;3.40;;;13.60;99.90;;;;;;5056829;28;20466;-63
2022/10/11 10:26:27;;;;;;;9.07;2.97;;;13.60;99.90;;;;;;5057086;28;20461;-63
2022/10/11 10:28:59;;;;;;;5.83;2.87;;;13.70;99.90;;;;;;5056917;28;20466;-63
2022/10/11 10:31:41;;;;;;;5.57;2.77;;;13.80;99.90;;;;;;5056040;28;20917;-64
2022/10/11 10:34:15;;;;;;;11.70;3.40;;;14.20;99.90;;;;;;5055369;28;20506;-64
2022/10/11 10:36:54;;;;;;;10.80;2.40;;;14.90;99.90;;;;;;5056545;28;20748;-65
2022/10/11 10:39:31;;;;;;;7.63;2.60;;;15.60;99.90;;;;;;5054265;28;20559;-65
2022/10/11 10:41:58;;;;;;;8.40;3.23;;;16.40;99.90;;;;;;5038208;28;20588;-65
2022/10/11 10:44:26;;;;;;;7.40;3.30;;;17.50;99.90;;;;;;5040380;28;20848;-64
2022/10/11 10:47:08;;;;;;;5.30;3.27;;;18.40;99.90;;;;;;5040228;28;20463;-65
2022/10/11 10:49:40;;;;;;;4.80;2.47;;;18.80;99.90;;;;;;5039889;28;20487;-64
2022/10/11 10:52:37;;;;;;;4.40;2.67;;;19.50;99.90;;;;;;5040396;28;20548;-64
2022/10/11 10:55:18;;;;;;;8.50;3.37;;;20.10;99.90;;;;;;5043411;28;20773;-64
2022/10/11 10:57:56;;;;;;;5.03;2.60;;;20.20;99.90;;;;;;5048827;28;20986;-64
2022/10/11 11:00:24;;;;;;;8.67;3.17;;;20.40;99.90;;;;;;5059271;28;20489;-64
2022/10/11 11:03:00;;;;;;;5.93;3.03;;;20.30;99.90;;;;;;5058393;28;21004;-64
2022/10/11 11:05:41;;;;;;;5.40;3.70;;;19.20;99.90;;;;;;5058839;28;20835;-64
2022/10/11 11:08:14;;;;;;;7.70;3.60;;;19.70;99.90;;;;;;5058450;28;20575;-64
2022/10/11 11:10:57;;;;;;;4.20;2.70;;;18.70;99.90;;;;;;5057756;28;20439;-64
2022/10/11 11:13:33;;;;;;;5.37;2.90;;;19.00;99.90;;;;;;5054845;28;20481;-64
2022/10/11 11:16:13;;;;;;;5.90;2.80;;;19.40;99.90;;;;;;5057071;28;20458;-64
2022/10/11 11:18:51;;;;;;;7.73;3.57;;;18.40;99.90;;;;;;5055936;28;20437;-64
2022/10/11 11:21:30;;;;;;;3.27;2.43;;;17.70;99.90;;;;;;5055098;28;20846;-64
2022/10/11 11:24:11;;;;;;;4.77;2.63;;;17.60;99.90;;;;;;5054850;28;20458;-64
2022/10/11 11:26:50;;;;;;;5.43;3.20;;;17.10;99.90;;;;;;5054474;28;20454;-64
2022/10/11 11:29:37;;;;;;;7.83;3.10;;;16.00;99.90;;;;;;5056365;28;20450;-64
2022/10/11 11:32:16;;;;;;;6.70;2.83;;;15.90;99.90;;;;;;5055704;28;20519;-64
2022/10/11 11:34:47;;;;;;;5.47;2.10;;;15.50;99.90;;;;;;5055343;28;20464;-63
2022/10/11 11:37:25;;;;;;;6.70;2.80;;;15.40;99.90;;;;;;5055604;28;20774;-63
2022/10/11 11:39:59;;;;;;;5.90;2.60;;;15.80;99.90;;;;;;5055048;28;20814;-63
2022/10/11 11:42:35;;;;;;;5.40;3.20;;;15.90;99.90;;;;;;5055306;28;20485;-61
2022/10/11 11:45:12;;;;;;;7.60;2.40;;;15.10;99.90;;;;;;5054424;28;20556;-63
2022/10/11 11:47:47;;;;;;;5.33;2.30;;;15.40;99.90;;;;;;5055738;28;20454;-61
2022/10/11 11:50:21;;;;;;;5.47;2.30;;;16.00;99.90;;;;;;5055877;28;20460;-63
2022/10/11 11:52:52;;;;;;;4.97;2.70;;;17.10;99.90;;;;;;5054391;28;20459;-63
2022/10/11 11:55:29;;;;;;;7.93;2.83;;;17.20;99.90;;;;;;5055446;28;20544;-64
2022/10/11 11:58:11;;;;;;;5.27;3.03;;;17.90;99.90;;;;;;5056109;28;20879;-62
2022/10/11 12:00:48;;;;;;;6.00;3.10;;;18.40;99.90;;;;;;5055720;28;20486;-63
2022/10/11 12:03:31;;;;;;;8.87;2.90;;;18.20;99.90;;;;;;5055515;28;20472;-63
2022/10/11 12:06:25;;;;;;;3.30;2.13;;;18.60;99.90;;;;;;5053710;28;20476;-63
2022/10/11 12:09:05;;;;;;;5.07;2.60;;;18.40;99.90;;;;;;5055691;28;20454;-63
2022/10/11 12:11:51;;;;;;;6.30;3.27;;;19.20;99.90;;;;;;5054183;28;20450;-63
2022/10/11 12:14:37;;;;;;;5.03;2.73;;;19.70;99.90;;;;;;5055844;28;20482;-62
2022/10/11 12:17:12;;;;;;;3.10;2.63;;;20.20;99.90;;;;;;5056767;28;20874;-61
2022/10/11 12:19:44;;;;;;;6.00;2.83;;;20.40;99.90;;;;;;5054207;28;20454;-63
2022/10/11 12:22:36;;;;;;;5.63;2.80;;;20.60;99.90;;;;;;5055998;28;20490;-62
2022/10/11 12:25:31;;;;;;;4.63;2.30;;;20.40;99.90;;;;;;5046957;28;20527;-62
2022/10/11 12:28:02;;;;;;;5.50;2.80;;;20.70;99.90;;;;;;5056019;28;20821;-63
2022/10/11 12:31:03;;;;;;;6.67;2.80;;;20.90;99.90;;;;;;5055119;28;20504;-60
2022/10/11 12:33:50;;;;;;;3.40;2.87;;;21.30;99.90;;;;;;5054940;28;20428;-63
2022/10/11 12:36:35;;;;;;;6.50;3.20;;;21.40;99.90;;;;;;5053845;28;20428;-63
2022/10/11 12:39:51;;;;;;;7.87;2.87;;;21.40;99.90;;;;;;5053153;28;20451;-63
2022/10/11 12:42:28;;;;;;;4.27;2.83;;;20.30;99.90;;;;;;5054075;28;20486;-63
2022/10/11 12:45:24;;;;;;;8.30;3.10;;;20.70;99.90;;;;;;5056611;28;20461;-63
2022/10/11 12:48:08;;;;;;;5.27;2.80;;;21.40;99.90;;;;;;5056004;28;20471;-63
2022/10/11 12:50:43;;;;;;;7.20;3.10;;;21.60;99.90;;;;;;5055985;28;20465;-63
2022/10/11 12:53:25;;;;;;;4.57;2.70;;;21.60;99.90;;;;;;5055841;28;20940;-61
2022/10/11 12:56:00;;;;;;;7.03;3.40;;;21.60;99.90;;;;;;5056701;28;20462;-62
2022/10/11 12:58:30;;;;;;;4.53;2.50;;;20.60;99.90;;;;;;5056542;28;20453;-60
2022/10/11 13:01:18;;;;;;;4.43;2.60;;;18.10;99.90;;;;;;5053700;28;20459;-63
2022/10/11 13:03:51;;;;;;;6.13;2.90;;;16.80;99.90;;;;;;5054239;28;20457;-62
2022/10/11 13:06:23;;;;;;;6.70;2.40;;;16.60;99.90;;;;;;5055732;28;20461;-62
2022/10/11 13:08:55;;;;;;;4.07;2.27;;;17.40;99.90;;;;;;5056393;28;20436;-63
2022/10/11 13:11:29;;;;;;;5.83;2.97;;;17.20;99.90;;;;;;5053423;28;20454;-63
2022/10/11 13:14:03;;;;;;;5.77;3.20;;;17.70;99.90;;;;;;5052261;28;20563;-62
2022/10/11 13:16:47;;;;;;;6.63;2.73;;;17.90;99.90;;;;;;5055245;28;20541;-62